Time,TemperatureF,DewpointF,PressureIn,WindDirection,WindDirectionDegrees,WindSpeedMPH,WindSpeedGustMPH,Humidity,HourlyPrecipIn,Conditions,Clouds,dailyrainin,SoftwareType,DateUTC
2017-07-21 00:05:00,82.2,76.0,29.93,WSW,238,0.0,3.0,82,0.00,,,0.00,weatherlink.com 1.10,2017-07-21 04:05:00,
2017-07-21 00:20:00,81.9,76.0,29.93,WSW,253,1.0,3.0,83,0.00,,,0.00,weatherlink.com 1.10,2017-07-21 04:20:00,
2017-07-21 00:35:00,81.6,76.0,29.93,WSW,239,0.0,2.0,83,0.00,,,0.00,weatherlink.com 1.10,2017-07-21 04:35:00,
2017-07-21 00:50:00,81.4,76.0,29.93,WSW,243,2.0,3.0,84,0.00,,,0.00,weatherlink.com 1.10,2017-07-21 04:50:00,
2017-07-21 01:05:00,81.1,76.0,29.93,WSW,246,0.0,2.0,84,0.00,,,0.00,weatherlink.com 1.10,2017-07-21 05:05:00,
2017-07-21 01:20:00,80.9,76.0,29.93,WSW,238,0.0,2.0,85,0.00,,,0.00,weatherlink.com 1.10,2017-07-21 05:20:00,
2017-07-21 01:35:00,80.6,76.0,29.93,WSW,247,2.0,3.0,85,0.00,,,0.00,weatherlink.com 1.10,2017-07-21 05:35:00,
2017-07-21 01:50:00,80.3,76.0,29.93,WSW,243,0.0,2.0,86,0.00,,,0.00,weatherlink.com 1.10,2017-07-21 05:50:00,
2017-07-21 02:05:00,79.9,75.0,29.92,WSW,238,0.0,1.0,86,0.00,,,0.00,weatherlink.com 1.10,2017-07-21 06:05:00,
2017-07-21 02:21:00,79.6,76.0,29.92,SW,235,0.0,1.0,87,0.00,,,0.00,weatherlink.com 1.10,2017-07-21 06:21:00,
2017-07-21 02:35:00,79.3,76.0,29.92,WSW,246,0.0,2.0,88,0.00,,,0.00,weatherlink.com 1.10,2017-07-21 06:35:00,
2017-07-21 02:50:00,78.9,76.0,29.91,WSW,239,0.0,2.0,89,0.00,,,0.00,weatherlink.com 1.10,2017-07-21 06:50:00,
2017-07-21 03:05:00,78.8,75.0,29.91,WSW,243,0.0,1.0,89,0.00,,,0.00,weatherlink.com 1.10,2017-07-21 07:05:00,
2017-07-21 03:20:00,78.6,75.0,29.91,WSW,249,0.0,3.0,89,0.00,,,0.00,weatherlink.com 1.10,2017-07-21 07:20:00,
2017-07-21 03:35:00,78.6,75.0,29.91,WSW,248,1.0,2.0,89,0.00,,,0.00,weatherlink.com 1.10,2017-07-21 07:35:00,
2017-07-21 03:50:00,78.7,75.0,29.91,WSW,247,2.0,2.0,89,0.00,,,0.00,weatherlink.com 1.10,2017-07-21 07:50:00,
2017-07-21 04:05:00,78.5,75.0,29.91,WSW,247,1.0,1.0,89,0.00,,,0.00,weatherlink.com 1.10,2017-07-21 08:05:00,
2017-07-21 04:20:00,78.6,75.0,29.91,WSW,250,1.0,3.0,87,0.00,,,0.00,weatherlink.com 1.10,2017-07-21 08:20:00,
2017-07-21 04:35:00,78.6,74.0,29.91,WSW,245,0.0,1.0,86,0.00,,,0.00,weatherlink.com 1.10,2017-07-21 08:35:00,
2017-07-21 04:50:00,78.4,75.0,29.91,WSW,245,0.0,0.0,88,0.00,,,0.00,weatherlink.com 1.10,2017-07-21 08:50:00,
2017-07-21 05:06:00,78.1,74.0,29.91,WSW,250,0.0,1.0,86,0.00,,,0.00,weatherlink.com 1.10,2017-07-21 09:06:00,
2017-07-21 05:20:00,77.9,74.0,29.92,WSW,250,0.0,1.0,87,0.00,,,0.00,weatherlink.com 1.10,2017-07-21 09:20:00,
2017-07-21 05:35:00,77.7,74.0,29.92,WSW,250,0.0,0.0,87,0.00,,,0.00,weatherlink.com 1.10,2017-07-21 09:35:00,
2017-07-21 05:51:00,77.3,73.0,29.92,WSW,250,0.0,0.0,87,0.00,,,0.00,weatherlink.com 1.10,2017-07-21 09:51:00,
2017-07-21 06:06:00,77.2,73.0,29.92,WSW,252,1.0,2.0,86,0.00,,,0.00,weatherlink.com 1.10,2017-07-21 10:06:00,
2017-07-21 06:21:00,77.9,73.0,29.92,WSW,255,1.0,3.0,84,0.00,,,0.00,weatherlink.com 1.10,2017-07-21 10:21:00,
2017-07-21 06:36:00,79.0,73.0,29.93,WSW,256,1.0,3.0,82,0.00,,,0.00,weatherlink.com 1.10,2017-07-21 10:36:00,
2017-07-21 06:51:00,80.1,73.0,29.94,West,259,3.0,4.0,79,0.00,,,0.00,weatherlink.com 1.10,2017-07-21 10:51:00,
2017-07-21 07:06:00,80.5,73.0,29.94,NNW,328,3.0,5.0,78,0.00,,,0.00,weatherlink.com 1.10,2017-07-21 11:06:00,
2017-07-21 07:21:00,81.0,73.0,29.94,WNW,298,4.0,6.0,77,0.00,,,0.00,weatherlink.com 1.10,2017-07-21 11:21:00,
2017-07-21 07:36:00,81.5,74.0,29.95,NNW,333,7.0,7.0,78,0.00,,,0.00,weatherlink.com 1.10,2017-07-21 11:36:00,
2017-07-21 07:51:00,82.0,74.0,29.95,NW,309,5.0,8.0,77,0.00,,,0.00,weatherlink.com 1.10,2017-07-21 11:51:00,
2017-07-21 08:06:00,82.4,74.0,29.96,NW,323,5.0,8.0,76,0.00,,,0.00,weatherlink.com 1.10,2017-07-21 12:06:00,